createdAt,value
2023-05-22T00:01:47.093Z,20.43
2023-05-22T00:04:21.713Z,20.43
2023-05-22T00:06:49.826Z,20.43
2023-05-22T00:09:17.690Z,20.42
2023-05-22T00:11:45.372Z,20.43
2023-05-22T00:14:13.935Z,20.42
2023-05-22T00:16:41.656Z,20.42
2023-05-22T00:19:13.830Z,20.43
2023-05-22T00:21:41.546Z,20.43
2023-05-22T00:24:09.884Z,20.43
2023-05-22T00:26:37.465Z,20.42
2023-05-22T00:29:06.238Z,20.43
2023-05-22T00:31:33.893Z,20.42
2023-05-22T00:34:01.679Z,20.42
2023-05-22T00:36:29.728Z,20.42
2023-05-22T00:38:57.330Z,20.43
2023-05-22T00:41:24.797Z,20.42
2023-05-22T00:43:52.426Z,20.43
2023-05-22T00:46:21.861Z,20.42
2023-05-22T00:48:49.693Z,20.42
2023-05-22T00:51:17.298Z,20.43
2023-05-22T00:53:44.843Z,20.43
2023-05-22T00:56:13.494Z,20.43
2023-05-22T00:58:41.604Z,20.42
2023-05-22T01:01:11.789Z,20.43
2023-05-22T01:03:47.530Z,20.43
2023-05-22T01:06:16.464Z,20.42
2023-05-22T01:08:44.356Z,20.43
2023-05-22T01:11:19.071Z,20.43
2023-05-22T01:13:53.477Z,20.43
2023-05-22T01:16:22.264Z,20.44
2023-05-22T01:19:18.333Z,20.44
2023-05-22T01:21:53.626Z,20.44
2023-05-22T01:24:56.603Z,20.44
2023-05-22T01:27:49.764Z,20.44
2023-05-22T01:30:19.004Z,20.44
2023-05-22T01:32:47.577Z,20.44
2023-05-22T01:35:17.800Z,20.44
2023-05-22T01:37:45.251Z,20.44
2023-05-22T01:40:13.334Z,20.44
2023-05-22T01:42:41.540Z,20.44
2023-05-22T01:45:11.956Z,20.44
2023-05-22T01:47:39.578Z,20.44
2023-05-22T01:50:07.605Z,20.44
2023-05-22T01:52:42.948Z,20.45
2023-05-22T01:55:18.420Z,20.45
2023-05-22T01:58:27.627Z,20.45
2023-05-22T02:00:56.536Z,20.46
2023-05-22T02:03:28.070Z,20.47
2023-05-22T02:05:56.062Z,20.49
2023-05-22T02:08:23.750Z,20.50
2023-05-22T02:10:51.575Z,20.51
2023-05-22T02:13:23.899Z,20.53
2023-05-22T02:15:51.848Z,20.54
2023-05-22T02:18:19.348Z,20.55
2023-05-22T02:20:47.439Z,20.57
2023-05-22T02:23:15.057Z,20.59
2023-05-22T02:25:42.561Z,20.60
2023-05-22T02:28:10.864Z,20.62
2023-05-22T02:30:39.107Z,20.63
2023-05-22T02:33:07.849Z,20.63
2023-05-22T02:35:36.013Z,20.63
2023-05-22T02:38:04.250Z,20.63
2023-05-22T02:40:32.046Z,20.63
2023-05-22T02:42:59.669Z,20.63
2023-05-22T02:45:27.317Z,20.63
2023-05-22T02:47:55.198Z,20.61
2023-05-22T02:50:22.879Z,20.60
2023-05-22T02:52:51.600Z,20.60
2023-05-22T02:55:19.344Z,20.58
2023-05-22T02:57:48.018Z,20.57
2023-05-22T03:00:15.913Z,20.57
2023-05-22T03:02:43.597Z,20.56
2023-05-22T03:05:11.200Z,20.56
2023-05-22T03:07:38.673Z,20.55
2023-05-22T03:10:07.184Z,20.54
2023-05-22T03:12:34.696Z,20.54
2023-05-22T03:15:02.980Z,20.53
2023-05-22T03:17:31.229Z,20.52
2023-05-22T03:19:58.813Z,20.51
2023-05-22T03:22:26.548Z,20.51
2023-05-22T03:24:53.950Z,20.49
2023-05-22T03:27:21.535Z,20.49
2023-05-22T03:29:50.173Z,20.48
2023-05-22T03:32:18.349Z,20.48
2023-05-22T03:34:46.577Z,20.48
2023-05-22T03:37:14.175Z,20.47
2023-05-22T03:39:41.910Z,20.46
2023-05-22T03:42:23.551Z,20.47
2023-05-22T03:44:51.519Z,20.46
2023-05-22T03:47:19.422Z,20.45
2023-05-22T03:49:47.204Z,20.45
2023-05-22T03:52:14.980Z,20.45
2023-05-22T03:54:42.526Z,20.45
2023-05-22T03:57:10.173Z,20.45
2023-05-22T03:59:37.597Z,20.44
2023-05-22T04:02:05.726Z,20.45
2023-05-22T04:04:38.914Z,20.44
2023-05-22T04:07:08.687Z,20.44
2023-05-22T04:09:36.800Z,20.43
2023-05-22T04:12:05.020Z,20.43
2023-05-22T04:14:33.181Z,20.43
2023-05-22T04:17:00.657Z,20.42
2023-05-22T04:19:30.560Z,20.42
2023-05-22T04:21:58.808Z,20.42
2023-05-22T04:24:27.940Z,20.42
2023-05-22T04:26:56.677Z,20.42
2023-05-22T04:29:24.748Z,20.41
2023-05-22T04:31:54.765Z,20.42
2023-05-22T04:34:22.181Z,20.41
2023-05-22T04:36:50.541Z,20.41
2023-05-22T04:39:18.615Z,20.41
2023-05-22T04:41:46.575Z,20.40
2023-05-22T04:44:14.664Z,20.40
2023-05-22T04:46:42.626Z,20.41
2023-05-22T04:49:11.026Z,20.40
2023-05-22T04:51:38.499Z,20.41
2023-05-22T04:54:06.411Z,20.41
2023-05-22T04:56:36.922Z,20.41
2023-05-22T04:59:09.623Z,20.41
2023-05-22T05:01:39.263Z,20.41
2023-05-22T05:04:07.036Z,20.41
2023-05-22T05:06:36.250Z,20.40
2023-05-22T05:09:07.584Z,20.38
2023-05-22T05:11:36.908Z,20.35
2023-05-22T05:14:35.846Z,20.35
2023-05-22T05:17:03.717Z,20.27
2023-05-22T05:19:35.480Z,20.23
2023-05-22T05:22:05.574Z,20.17
2023-05-22T05:24:33.255Z,20.11
2023-05-22T05:27:02.262Z,20.04
2023-05-22T05:29:31.168Z,19.97
2023-05-22T05:32:07.291Z,19.90
2023-05-22T05:34:47.498Z,19.82
2023-05-22T05:37:26.097Z,19.75
2023-05-22T05:39:55.879Z,19.69
2023-05-22T05:42:24.012Z,19.64
2023-05-22T05:44:53.458Z,19.58
2023-05-22T05:47:40.487Z,19.54
2023-05-22T05:50:09.993Z,19.47
2023-05-22T05:52:39.280Z,19.42
2023-05-22T05:55:11.919Z,19.38
2023-05-22T05:57:40.307Z,19.35
2023-05-22T06:00:12.449Z,19.32
2023-05-22T06:02:50.347Z,19.29
2023-05-22T06:05:38.761Z,19.26
2023-05-22T06:08:24.353Z,19.23
2023-05-22T06:10:53.687Z,19.21
2023-05-22T06:13:36.402Z,19.18
2023-05-22T06:16:06.553Z,19.15
2023-05-22T06:18:34.940Z,19.13
2023-05-22T06:21:11.855Z,19.11
2023-05-22T06:23:43.105Z,19.09
2023-05-22T06:26:12.125Z,19.08
2023-05-22T06:28:54.779Z,19.11
2023-05-22T06:31:23.746Z,19.10
2023-05-22T06:33:52.701Z,19.12
2023-05-22T06:36:21.727Z,19.12
2023-05-22T06:38:50.046Z,19.13
2023-05-22T06:41:37.466Z,19.14
2023-05-22T06:44:06.847Z,19.16
2023-05-22T06:48:01.579Z,19.22
2023-05-22T07:16:48.684Z,19.22
2023-05-22T07:19:21.691Z,19.22
2023-05-22T07:21:49.354Z,19.25
2023-05-22T07:24:18.906Z,19.29
2023-05-22T07:26:46.932Z,19.33
2023-05-22T07:29:14.979Z,19.36
2023-05-22T07:31:43.038Z,19.40
2023-05-22T07:34:11.192Z,19.44
2023-05-22T07:36:39.097Z,19.48
2023-05-22T07:39:08.536Z,19.52
2023-05-22T07:41:39.498Z,19.55
2023-05-22T07:44:07.888Z,19.59
2023-05-22T07:46:38.732Z,19.62
2023-05-22T07:49:12.157Z,19.66
2023-05-22T07:51:41.708Z,19.70
2023-05-22T07:54:10.677Z,19.72
2023-05-22T07:56:43.797Z,19.75
2023-05-22T07:59:12.500Z,19.77
2023-05-22T08:01:58.505Z,19.83
2023-05-22T08:04:26.509Z,19.84
2023-05-22T08:06:55.307Z,19.87
2023-05-22T08:09:23.200Z,19.89
2023-05-22T08:11:51.151Z,19.91
2023-05-22T08:14:18.728Z,19.93
2023-05-22T08:16:46.225Z,19.96
2023-05-22T08:19:14.314Z,19.97
2023-05-22T08:21:42.322Z,19.99
2023-05-22T08:24:10.354Z,20.01
2023-05-22T08:26:39.180Z,20.02
2023-05-22T08:29:07.023Z,20.05
2023-05-22T08:31:34.956Z,20.06
2023-05-22T08:34:03.075Z,20.07
2023-05-22T08:36:31.867Z,20.09
2023-05-22T08:38:59.291Z,20.11
2023-05-22T08:41:26.973Z,20.12
2023-05-22T08:43:54.573Z,20.13
2023-05-22T08:46:22.139Z,20.14
2023-05-22T08:48:50.025Z,20.16
2023-05-22T08:51:19.347Z,20.16
2023-05-22T08:53:49.961Z,20.18
2023-05-22T08:56:17.701Z,20.18
2023-05-22T08:58:46.586Z,20.20
2023-05-22T09:01:14.317Z,20.21
2023-05-22T09:03:42.750Z,20.23
2023-05-22T09:06:11.520Z,20.24
2023-05-22T09:08:39.675Z,20.25
2023-05-22T09:11:07.252Z,20.26
2023-05-22T09:13:34.891Z,20.26
2023-05-22T09:16:10.310Z,20.27
2023-05-22T09:18:38.758Z,20.28
2023-05-22T09:23:41.826Z,20.30
2023-05-22T09:26:09.572Z,20.31
2023-05-22T09:28:37.674Z,20.32
2023-05-22T09:31:07.594Z,20.32
2023-05-22T09:33:37.507Z,20.34
2023-05-22T09:36:06.471Z,20.35
2023-05-22T09:38:34.158Z,20.36
2023-05-22T09:41:01.682Z,20.36
2023-05-22T09:43:29.230Z,20.37
2023-05-22T09:46:04.945Z,20.37
2023-05-22T09:48:38.679Z,20.38
2023-05-22T09:51:06.319Z,20.39
2023-05-22T09:53:34.059Z,20.39
2023-05-22T09:56:01.945Z,20.40
2023-05-22T09:58:31.576Z,20.40
2023-05-22T10:00:59.758Z,20.40
2023-05-22T10:03:27.393Z,20.42
2023-05-22T10:05:56.719Z,20.42
2023-05-22T10:08:31.719Z,20.43
2023-05-22T10:10:59.266Z,20.44
2023-05-22T10:13:27.713Z,20.44
2023-05-22T10:15:55.323Z,20.45
2023-05-22T10:20:43.275Z,20.51
2023-05-22T10:23:11.621Z,20.57
2023-05-22T10:25:40.208Z,20.66
2023-05-22T10:28:08.197Z,20.73
2023-05-22T10:30:48.912Z,20.77
2023-05-22T10:33:42.898Z,20.79
2023-05-22T10:36:52.321Z,20.79
2023-05-22T10:39:54.871Z,20.78
2023-05-22T10:42:30.797Z,20.77
2023-05-22T10:45:00.922Z,20.76
2023-05-22T10:47:29.101Z,20.75
2023-05-22T10:50:12.501Z,20.74
2023-05-22T10:52:40.565Z,20.72
2023-05-22T10:55:09.630Z,20.72
2023-05-22T10:57:40.255Z,20.71
2023-05-22T11:00:09.856Z,20.70
2023-05-22T11:02:48.254Z,20.70
2023-05-22T11:05:20.372Z,20.70
2023-05-22T11:07:48.654Z,20.69
2023-05-22T11:10:26.580Z,20.69
2023-05-22T11:13:11.598Z,20.70
2023-05-22T11:15:45.036Z,20.69
2023-05-22T11:18:13.092Z,20.69
2023-05-22T11:20:41.095Z,20.69
2023-05-22T11:23:11.022Z,20.69
2023-05-22T11:25:40.138Z,20.70
2023-05-22T11:28:08.381Z,20.70
2023-05-22T11:30:36.349Z,20.70
2023-05-22T11:33:05.235Z,20.71
2023-05-22T11:35:32.746Z,20.71
2023-05-22T11:38:00.694Z,20.72
2023-05-22T11:40:29.890Z,20.73
2023-05-22T11:42:57.701Z,20.73
2023-05-22T11:45:26.209Z,20.74
2023-05-22T11:47:54.351Z,20.74
2023-05-22T11:50:40.223Z,20.75
2023-05-22T11:53:09.813Z,20.75
2023-05-22T11:55:38.160Z,20.76
2023-05-22T11:58:11.650Z,20.77
2023-05-22T12:00:40.290Z,20.77
2023-05-22T12:03:09.648Z,20.78
2023-05-22T12:05:38.674Z,20.79
2023-05-22T12:08:07.073Z,20.80
2023-05-22T12:10:35.509Z,20.80
2023-05-22T12:13:03.827Z,20.81
